Latest Coastal Weather Observations for Rottnest Island

IDW60701

Issued at 6:52 pm WST Monday 31 August 2015 (issued every 10 minutes, with the page automatically refreshed every 10 minutes)

About coastal observations | Map of coastal stations | Coastal observations for WA | Marine services | Other Formats
Station Details ID: 009193 Name: ROTTNEST ISLAND Lat: -32.01 Lon: 115.50 Height: 43.1 m
Data from the previous 72 hours. | See also: Recent months at Rottnest Island
Date/Time
WST
Temp

°C
Wind Pressure Rain
since 9am
mm
Weather Cloud Vis
km
Sea
Height
m
Swell
Dir
 
Speed
knots
Gust
knots
hPa Trend Height
m
Period
s
Dir
31/06:48pm 12.3 SSW 28 43 1018.3 - 0.4 - - - - - - -
31/06:46pm 12.7 SSW 26 43 1018.2 - 0.4 - - - - - - -
31/06:44pm 13.8 SSW 23 35 1018.1 - 0.4 - - - - - - -
31/06:30pm 14.0 SSW 25 31 1017.9 - 0.4 - - - - - - -
31/06:13pm 13.7 SSW 24 34 1017.8 - 0.4 - - - - - - -
31/06:00pm 14.1 SSW 25 32 1017.3 - 0.4 - - - - - - -
31/05:35pm 14.1 SSW 25 35 1017.4 - 0.4 - - - - - - -
31/05:30pm 13.7 SSW 27 35 1017.2 - 0.4 - - - - - - -
31/05:00pm 15.1 SW 25 30 1017.0 - 0.4 - - - - - - -
31/04:30pm 15.3 SW 25 30 1016.7 - 0.4 - - - - - - -
31/04:00pm 15.8 SW 24 29 1016.6 - 0.4 - - - - - - -
31/03:30pm 15.7 SW 23 28 1016.6 - 0.4 - - - - - - -
31/03:12pm 14.6 SW 23 35 1016.3 - 0.4 - - - - - - -
31/03:00pm 15.2 SW 23 30 1016.2 - 0.4 - - - - - - -
31/02:30pm 13.8 SW 23 34 1016.4 - 0.4 - - - - - - -
31/02:20pm 16.0 WSW 23 38 1016.4 - 0.4 - - - - - - -
31/02:00pm 16.7 WSW 24 29 1016.4 - 0.4 - - - - - - -
31/01:30pm 16.8 WSW 22 28 1016.5 - 0.4 - - - - - - -
31/01:00pm 16.6 WSW 23 30 1016.5 - 0.4 - - - - - - -
31/12:30pm 14.4 WSW 24 37 1017.0 - 0.4 - - - - - - -
31/12:23pm 15.9 WNW 17 32 1017.1 - 0.4 - - - - - - -
31/12:00pm 16.1 NW 19 23 1017.1 - 0.4 - - - - - - -
31/11:30am 14.8 WNW 18 24 1017.8 - 0.4 - - - - - - -
31/11:00am 14.7 WNW 16 22 1018.1 - 0.4 - - - - - - -
31/10:30am 16.3 NW 15 19 1018.0 - 0.0 - - - - - - -
31/10:00am 15.6 NW 11 14 1018.5 - 0.0 - - - - - - -
31/09:30am 14.4 NW 16 19 1018.8 - 0.0 - - - - - - -
31/09:00am 14.0 NW 18 28 1018.8 - 0.2 - - - - - - -
31/08:58am 14.7 NW 15 26 1018.9 - 0.2 - - - - - - -
31/08:30am 15.7 WNW 11 14 1018.8 - 0.2 - - - - - - -
31/08:00am 15.5 WNW 10 13 1018.8 - 0.2 - - - - - - -
31/07:30am 14.2 W 9 14 1018.6 - 0.2 - - - - - - -
31/07:00am 14.2 W 11 15 1018.7 - 0.2 - - - - - - -
31/06:30am 14.1 W 9 13 1018.6 - 0.2 - - - - - - -
31/06:00am 14.1 W 11 15 1018.6 - 0.2 - - - - - - -
31/05:30am 14.2 W 14 18 1018.7 - 0.2 - - - - - - -
31/05:00am 14.3 W 17 21 1018.5 - 0.2 - - - - - - -
31/04:30am 14.1 W 13 17 1018.6 - 0.2 - - - - - - -
31/04:00am 14.1 W 12 18 1018.8 - 0.2 - - - - - - -
31/03:30am 13.4 WSW 10 15 1019.0 - 0.2 - - - - - - -
31/03:00am 13.5 W 12 16 1019.3 - 0.2 Recent precip. - - - - - -
31/02:30am 12.8 WSW 7 11 1019.4 - 0.2 - - - - - - -
31/02:00am 12.3 NW 19 27 1019.8 - 0.0 - - - - - - -
31/01:48am 13.3 W 14 25 1019.8 - 0.0 - - - - - - -
31/01:30am 13.9 WSW 11 14 1019.7 - 0.0 - - - - - - -
31/01:00am 13.9 W 7 10 1019.8 - 0.0 - - - - - - -
31/12:30am 14.1 W 10 13 1020.0 - 0.0 - - - - - - -
31/12:00am 14.5 W 9 13 1020.1 - 0.0 - - - - - - -
 
Date/Time
WST
Temp

°C
Wind Pressure Rain
since 9am
mm
Weather Cloud Vis
km
Sea
Height
m
Swell
Dir
 
Speed
knots
Gust
knots
hPa Trend Height
m
Period
s
Dir
30/11:30pm 14.3 W 10 14 1020.5 - 0.0 - - - - - - -
30/11:00pm 14.0 W 11 18 1020.7 - 0.0 - - - - - - -
30/10:30pm 13.8 WSW 9 12 1020.8 - 0.0 - - - - - - -
30/10:00pm 13.7 W 9 13 1021.1 - 0.0 - - - - - - -
30/09:30pm 13.6 W 7 9 1021.2 - 0.0 - - - - - - -
30/09:00pm 13.6 SSW 6 9 1021.2 - 0.0 - - - - - - -
30/08:30pm 13.7 WNW 7 9 1021.3 - 0.0 - - - - - - -
30/08:00pm 13.6 WNW 7 9 1021.1 - 0.0 - - - - - - -
30/07:30pm 13.7 W 7 9 1021.0 - 0.0 - - - - - - -
30/07:00pm 14.1 SW 1 4 1020.8 - 0.0 - - - - - - -
30/06:30pm 13.7 SSE 4 5 1020.6 - 0.0 - - - - - - -
30/06:00pm 13.8 SSW 12 17 1020.5 - 0.0 - - - - - - -
30/05:30pm 14.9 SW 8 10 1020.3 - 0.0 - - - - - - -
30/05:00pm 15.3 SW 8 11 1020.1 - 0.0 - - - - - - -
30/04:30pm 15.6 SW 11 13 1019.9 - 0.0 - - - - - - -
30/04:00pm 16.4 SW 11 13 1019.9 - 0.0 - - - - - - -
30/03:30pm 16.4 SSW 10 13 1020.0 - 0.0 - - - - - - -
30/03:00pm 16.0 SW 11 15 1019.9 - 0.0 - - - - - - -
30/02:30pm 16.3 SSW 11 15 1019.7 - 0.0 - - - - - - -
30/02:00pm 15.8 SSW 10 13 1019.5 - 0.0 - - - - - - -
30/01:30pm 16.3 S 12 15 1019.4 - 0.0 - - - - - - -
30/01:00pm 16.7 SSW 11 15 1019.5 - 0.0 - - - - - - -
30/12:30pm 17.0 SSW 12 16 1019.7 - 0.0 - - - - - - -
30/12:00pm 16.8 SSW 15 19 1019.8 - 0.0 - - - - - - -
30/11:30am 16.8 SSW 19 23 1019.8 - 0.0 - - - - - - -
30/11:00am 17.0 SW 15 19 1019.9 - 0.0 - - - - - - -
30/10:30am 16.8 SW 17 21 1019.9 - 0.0 - - - - - - -
30/10:00am 16.3 SSW 17 22 1019.8 - 0.0 - - - - - - -
30/09:30am 16.7 SW 19 23 1019.5 - 0.0 - - - - - - -
30/09:00am 16.0 SW 19 23 1019.3 - 4.2 - - - - - - -
30/08:30am 15.8 SW 19 24 1019.0 - 4.2 - - - - - - -
30/08:00am 15.7 SW 20 24 1018.5 - 4.2 - - - - - - -
30/07:30am 15.8 SW 18 24 1018.0 - 4.2 - - - - - - -
30/07:00am 15.1 SW 23 29 1017.3 - 4.2 - - - - - - -
30/06:30am 15.3 SW 20 24 1016.6 - 4.2 - - - - - - -
30/06:00am 14.7 SW 22 30 1016.3 - 4.2 - - - - - - -
30/05:57am 15.1 SW 19 29 1016.4 - 4.2 - - - - - - -
30/05:30am 15.1 SW 19 24 1016.1 - 4.2 - - - - - - -
30/05:00am 15.1 SW 19 25 1015.8 - 4.2 - - - - - - -
30/04:30am 15.0 SW 19 24 1015.6 - 4.2 - - - - - - -
30/04:00am 15.3 SW 20 25 1015.4 - 4.2 - - - - - - -
30/03:30am 15.5 SW 23 27 1015.1 - 4.2 - - - - - - -
30/03:00am 15.8 WSW 17 24 1015.0 - 4.2 - - - - - - -
30/02:30am 16.3 SW 19 26 1014.8 - 4.2 - - - - - - -
30/02:00am 15.2 WSW 17 22 1014.8 - 4.2 - - - - - - -
30/01:30am 15.2 W 16 25 1014.7 - 4.2 - - - - - - -
30/01:20am 14.8 W 15 23 1014.8 - 4.2 - - - - - - -
30/01:00am 15.2 WSW 10 13 1014.6 - 4.0 - - - - - - -
30/12:30am 16.1 W 14 19 1014.4 - 4.0 - - - - - - -
30/12:00am 15.8 WSW 11 15 1014.2 - 4.0 - - - - - - -
 
Date/Time
WST
Temp

°C
Wind Pressure Rain
since 9am
mm
Weather Cloud Vis
km
Sea
Height
m
Swell
Dir
 
Speed
knots
Gust
knots
hPa Trend Height
m
Period
s
Dir
29/11:30pm 16.0 W 13 15 1014.1 - 4.0 - - - - - - -
29/11:00pm 15.7 WSW 11 15 1014.0 - 4.0 - - - - - - -
29/10:30pm 15.5 W 12 17 1014.1 - 4.0 - - - - - - -
29/10:00pm 15.8 WSW 12 15 1014.2 - 4.0 - - - - - - -
29/09:30pm 15.6 WSW 12 17 1013.9 - 4.0 - - - - - - -
29/09:00pm 15.6 WSW 17 21 1013.6 - 4.0 Recent precip. - - - - - -
29/08:44pm 15.8 WNW 22 29 1013.4 - 3.2 - - - - - - -
29/08:35pm 16.8 NW 18 28 1013.1 - 2.6 - - - - - - -
29/08:30pm 16.5 NW 14 21 1013.1 - 2.6 - - - - - - -
29/08:27pm 16.5 NW 14 18 1013.2 - 2.6 - - - - - - -
29/08:00pm 15.9 WNW 21 28 1013.2 - 2.4 - - - - - - -
29/07:50pm 16.7 NW 18 28 1013.0 - 1.0 - - - - - - -
29/07:30pm 18.4 NNW 16 21 1012.5 - 0.6 - - - - - - -
29/07:00pm 18.2 NNW 17 22 1012.4 - 0.6 - - - - - - -
29/06:30pm 18.1 NW 15 20 1012.3 - 0.6 - - - - - - -
29/06:00pm 18.0 NW 13 17 1012.0 - 0.6 - - - - - - -
29/05:30pm 18.4 NW 14 18 1011.9 - 0.6 - - - - - - -
29/05:00pm 18.9 NW 16 19 1011.8 - 0.6 - - - - - - -
29/04:30pm 19.1 NW 14 19 1011.7 - 0.6 - - - - - - -
29/04:00pm 19.9 WNW 13 16 1011.8 - 0.6 - - - - - - -
29/03:30pm 19.2 WNW 14 17 1011.7 - 0.6 - - - - - - -
29/03:00pm 20.2 WNW 15 19 1011.7 - 0.6 - - - - - - -
29/02:30pm 20.0 W 16 20 1011.7 - 0.6 - - - - - - -
29/02:00pm 20.0 WNW 19 24 1011.6 - 0.6 - - - - - - -
29/01:30pm 19.5 WNW 19 25 1011.5 - 0.6 - - - - - - -
29/01:00pm 19.7 NW 23 30 1011.6 - 0.6 - - - - - - -
29/12:30pm 19.6 NW 23 29 1011.7 - 0.6 - - - - - - -
29/12:00pm 18.4 NNW 20 27 1011.9 - 0.6 Recent precip. - - - - - -
29/11:30am 16.9 NNW 22 28 1012.3 - 0.6 - - - - - - -
29/11:00am 17.3 N 23 29 1012.1 - 0.4 - - - - - - -
29/10:30am 17.9 N 23 30 1012.1 - 0.0 - - - - - - -
29/10:00am 17.6 N 20 26 1012.1 - 0.0 - - - - - - -
29/09:30am 16.8 N 20 26 1012.7 - 0.0 - - - - - - -
29/09:00am 16.5 N 18 24 1012.9 - 9.6 - - - - - - -
29/08:30am 16.2 N 18 23 1012.9 - 9.6 - - - - - - -
29/08:00am 16.3 N 16 20 1012.8 - 9.6 - - - - - - -
29/07:30am 16.0 N 15 20 1012.6 - 9.6 - - - - - - -
29/07:00am 16.4 N 14 18 1012.6 - 9.6 - - - - - - -
29/06:30am 16.3 N 15 19 1012.4 - 9.6 - - - - - - -
29/06:00am 16.0 N 14 18 1012.1 - 9.6 - - - - - - -
29/05:30am 16.0 NNE 13 16 1012.1 - 9.6 - - - - - - -
29/05:00am 16.2 N 13 16 1012.2 - 9.6 - - - - - - -
29/04:30am 16.4 N 11 16 1012.2 - 9.6 - - - - - - -
29/04:00am 16.7 N 12 16 1012.2 - 9.6 - - - - - - -
29/03:30am 17.1 N 12 16 1012.5 - 9.6 - - - - - - -
29/03:00am 17.8 NNW 14 18 1012.7 - 9.6 - - - - - - -
29/02:30am 17.9 NNW 14 17 1012.9 - 9.6 - - - - - - -
29/02:00am 17.8 NNW 13 16 1013.1 - 9.6 - - - - - - -
29/01:30am 17.7 NNW 13 15 1013.6 - 9.6 - - - - - - -
29/01:00am 17.6 NNW 13 17 1013.8 - 9.6 - - - - - - -
29/12:30am 17.7 NNW 13 16 1014.1 - 9.6 - - - - - - -
29/12:00am 17.7 NNW 12 14 1014.3 - 9.6 - - - - - - -
 
Date/Time
WST
Temp

°C
Wind Pressure Rain
since 9am
mm
Weather Cloud Vis
km
Sea
Height
m
Swell
Dir
 
Speed
knots
Gust
knots
hPa Trend Height
m
Period
s
Dir
28/11:30pm 17.8 NNW 12 15 1014.6 - 9.6 - - - - - - -
28/11:00pm 17.9 NNW 11 14 1014.9 - 9.6 - - - - - - -
28/10:30pm 17.8 NNW 12 14 1015.2 - 9.6 - - - - - - -
28/10:00pm 18.0 NW 12 14 1015.6 - 9.6 - - - - - - -
28/09:30pm 17.9 NNW 11 13 1015.7 - 9.6 - - - - - - -
28/09:00pm 17.6 NNW 10 12 1015.4 - 9.6 - - - - - - -
28/08:30pm 17.6 N 9 11 1015.5 - 9.6 - - - - - - -
28/08:00pm 17.2 NNW 8 9 1015.4 - 9.6 - - - - - - -
28/07:30pm 17.4 NW 7 8 1015.3 - 9.6 - - - - - - -
28/07:00pm 17.5 NNE 4 5 1015.2 - 9.6 - - - - - - -

Other Formats:

Comma delimited format used in spreadsheet applications
http://www.bom.gov.au/fwo/IDW60701/IDW60701.94602.axf

JavaScript Object Notation format (JSON) in row-major order
http://www.bom.gov.au/fwo/IDW60701/IDW60701.94602.json